Mandarin Grace — 9V8352 — position and weather

sailwx.info

Track history (hours):
 
Tides and Currents Weather Stations Pressure Air Temp Water Temp Dewpoint Dewpoint Depression Visibility Wind Speed Wind Dir Waves Ship Positions

Mandarin Grace

Last reported at 2017-Jul-22 00:14 UTC. Time now 2017-Jul-24 18:27 UTC.
Position N 33°15' E 120°52'.

Length 190 m; draft 12.9 m.

Type: Cargo ship. MMSI: 563862000.

Date/timePositionNaut miles runAvg speedWind from/ knotsBaromVisibWave heightAir tempDewpointWater temp
2017-Jul-22 00:14N 33°15' E 120°52'  
2017-Jul-18 18:28N 33°14' E 122°45'510.9
2017-Jul-18 18:00N 33°09' E 122°47'510.8
2017-Jul-18 17:30N 33°04' E 122°49'510.8
2017-Jul-18 17:00N 32°59' E 122°51'510.8
2017-Jul-18 16:30N 32°54' E 122°53'610.8
2017-Jul-18 15:58N 32°49' E 122°55'511.0
2017-Jul-18 15:30N 32°44' E 122°57'610.9
2017-Jul-18 14:59N 32°38' E 122°60'1111.0
2017-Jul-18 14:00N 32°28' E 123°04'611.2
2017-Jul-18 13:30N 32°23' E 123°06'611.3
2017-Jul-18 12:59N 32°17' E 123°08'611.8
2017-Jul-18 12:30N 32°12' E 123°09'611.9
2017-Jul-18 12:00N 32°06' E 123°11'712.0
2017-Jul-18 11:26N 31°59' E 123°13'  
Track history (hours):
 
Tides and Currents Weather Stations Pressure Air Temp Water Temp Dewpoint Dewpoint Depression Visibility Wind Speed Wind Dir Waves Ship Positions

Mandarin Grace

Last reported at 2017-Jul-22 00:14 UTC. Time now 2017-Jul-24 18:27 UTC.
Position N 33°15' E 120°52'.

Length 190 m; draft 12.9 m.

Type: Cargo ship. MMSI: 563862000.

Date/timePositionNaut miles runAvg speedWind from/ knotsBaromVisibWave heightAir tempDewpointWater temp
2017-Jul-22 00:14N 33°15' E 120°52'  
2017-Jul-18 18:28N 33°14' E 122°45'510.9
2017-Jul-18 18:00N 33°09' E 122°47'510.8
2017-Jul-18 17:30N 33°04' E 122°49'510.8
2017-Jul-18 17:00N 32°59' E 122°51'510.8
2017-Jul-18 16:30N 32°54' E 122°53'610.8
2017-Jul-18 15:58N 32°49' E 122°55'511.0
2017-Jul-18 15:30N 32°44' E 122°57'610.9
2017-Jul-18 14:59N 32°38' E 122°60'1111.0
2017-Jul-18 14:00N 32°28' E 123°04'611.2
2017-Jul-18 13:30N 32°23' E 123°06'611.3
2017-Jul-18 12:59N 32°17' E 123°08'611.8
2017-Jul-18 12:30N 32°12' E 123°09'611.9
2017-Jul-18 12:00N 32°06' E 123°11'712.0
2017-Jul-18 11:26N 31°59' E 123°13'  

Dump ship's entire track history